createdAt,value
2018-12-12T00:00:38.750Z,6.35
2018-12-12T00:04:44.805Z,6.32
2018-12-12T00:08:48.911Z,6.32
2018-12-12T00:12:53.025Z,6.36
2018-12-12T00:16:57.117Z,6.34
2018-12-12T00:21:01.291Z,6.14
2018-12-12T00:25:06.842Z,5.99
2018-12-12T00:29:10.974Z,5.98
2018-12-12T00:33:15.085Z,6.09
2018-12-12T00:37:19.215Z,6.22
2018-12-12T00:41:23.641Z,6.20
2018-12-12T00:45:27.881Z,6.11
2018-12-12T00:49:31.968Z,6.15
2018-12-12T00:53:36.106Z,6.19
2018-12-12T00:57:40.471Z,6.09
2018-12-12T01:01:44.601Z,6.08
2018-12-12T01:05:48.682Z,6.17
2018-12-12T01:09:52.761Z,6.18
2018-12-12T01:13:56.848Z,6.11
2018-12-12T01:18:00.902Z,6.07
2018-12-12T01:22:05.055Z,6.10
2018-12-12T01:26:09.124Z,6.19
2018-12-12T01:30:13.220Z,6.19
2018-12-12T01:34:17.330Z,6.17
2018-12-12T01:38:21.454Z,6.27
2018-12-12T01:42:25.568Z,6.41
2018-12-12T01:46:29.653Z,6.43
2018-12-12T01:50:33.724Z,6.37
2018-12-12T01:54:37.781Z,6.28
2018-12-12T01:58:41.914Z,6.30
2018-12-12T02:02:45.989Z,6.35
2018-12-12T02:06:50.105Z,6.38
2018-12-12T02:10:54.540Z,6.45
2018-12-12T02:14:58.625Z,6.40
2018-12-12T02:19:02.784Z,6.30
2018-12-12T02:23:06.869Z,6.29
2018-12-12T02:27:10.955Z,6.40
2018-12-12T02:31:15.009Z,6.48
2018-12-12T02:35:19.127Z,6.51
2018-12-12T02:39:23.296Z,6.47
2018-12-12T02:43:27.381Z,6.40
2018-12-12T02:47:32.671Z,6.45
2018-12-12T02:51:36.730Z,6.28
2018-12-12T02:55:40.807Z,6.20
2018-12-12T02:59:44.881Z,6.08
2018-12-12T03:03:49.054Z,5.79
2018-12-12T03:07:53.273Z,5.50
2018-12-12T03:11:57.384Z,5.39
2018-12-12T03:16:01.524Z,5.41
2018-12-12T03:20:06.690Z,5.61
2018-12-12T03:24:10.796Z,5.69
2018-12-12T03:28:15.016Z,5.79
2018-12-12T03:32:19.133Z,5.75
2018-12-12T03:36:23.344Z,5.78
2018-12-12T03:40:27.869Z,5.79
2018-12-12T03:44:31.941Z,5.75
2018-12-12T03:48:36.022Z,5.78
2018-12-12T03:52:40.163Z,5.90
2018-12-12T03:56:44.231Z,5.93
2018-12-12T04:00:48.414Z,5.98
2018-12-12T04:04:52.494Z,6.03
2018-12-12T04:08:56.639Z,6.13
2018-12-12T04:13:00.780Z,6.20
2018-12-12T04:17:04.865Z,6.20
2018-12-12T04:21:08.925Z,6.21
2018-12-12T04:25:13.476Z,6.23
2018-12-12T04:29:17.572Z,6.32
2018-12-12T04:33:21.643Z,6.42
2018-12-12T04:37:25.718Z,6.43
2018-12-12T04:41:29.860Z,6.41
2018-12-12T04:45:34.002Z,6.41
2018-12-12T04:49:38.155Z,6.38
2018-12-12T04:53:42.228Z,6.39
2018-12-12T04:57:46.333Z,6.39
2018-12-12T05:01:50.758Z,6.38
2018-12-12T05:05:54.904Z,6.38
2018-12-12T05:09:59.000Z,6.44
2018-12-12T05:14:03.079Z,6.42
2018-12-12T05:18:07.130Z,6.39
2018-12-12T05:22:11.210Z,6.46
2018-12-12T05:26:15.283Z,6.48
2018-12-12T05:30:19.489Z,6.47
2018-12-12T05:34:23.547Z,6.47
2018-12-12T05:38:27.629Z,6.45
2018-12-12T05:42:32.828Z,6.41
2018-12-12T05:46:41.740Z,6.49
2018-12-12T05:50:43.069Z,6.54
2018-12-12T05:54:47.125Z,6.49
2018-12-12T05:58:51.232Z,6.55
2018-12-12T06:02:55.349Z,6.60
2018-12-12T06:06:59.477Z,6.57
2018-12-12T06:11:03.615Z,6.53
2018-12-12T06:15:08.312Z,6.55
2018-12-12T06:19:12.428Z,6.58
2018-12-12T06:23:16.582Z,6.56
2018-12-12T06:27:21.735Z,6.62
2018-12-12T06:31:25.789Z,6.60
2018-12-12T06:35:29.875Z,6.56
2018-12-12T06:39:34.004Z,6.50
2018-12-12T06:43:38.074Z,6.55
2018-12-12T06:47:42.152Z,6.59
2018-12-12T06:51:46.226Z,6.66
2018-12-12T06:55:50.313Z,6.64
2018-12-12T06:59:54.386Z,6.71
2018-12-12T07:03:58.466Z,6.82
2018-12-12T07:08:02.570Z,6.82
2018-12-12T07:12:06.661Z,6.77
2018-12-12T07:16:10.737Z,6.82
2018-12-12T07:20:14.913Z,6.93
2018-12-12T07:24:18.986Z,6.99
2018-12-12T07:28:23.128Z,7.05
2018-12-12T07:32:27.274Z,7.17
2018-12-12T07:36:31.346Z,7.28
2018-12-12T07:40:35.454Z,7.28
2018-12-12T07:44:41.496Z,7.22
2018-12-12T07:48:48.482Z,7.12
2018-12-12T07:52:58.145Z,7.10
2018-12-12T07:57:02.234Z,7.25
2018-12-12T08:01:06.398Z,7.40
2018-12-12T08:05:10.613Z,7.47
2018-12-12T08:09:14.729Z,7.45
2018-12-12T08:13:18.828Z,6.95
2018-12-12T08:17:22.971Z,6.91
2018-12-12T08:21:27.098Z,7.16
2018-12-12T08:25:31.473Z,7.34
2018-12-12T08:29:35.548Z,7.41
2018-12-12T08:33:39.623Z,7.47
2018-12-12T08:37:43.699Z,7.61
2018-12-12T08:41:47.773Z,7.55
2018-12-12T08:45:51.918Z,7.56
2018-12-12T08:49:55.990Z,7.63
2018-12-12T08:54:00.078Z,7.58
2018-12-12T08:58:04.297Z,7.49
2018-12-12T09:02:08.460Z,7.23
2018-12-12T09:06:12.620Z,7.24
2018-12-12T09:10:16.773Z,7.45
2018-12-12T09:14:22.838Z,7.65
2018-12-12T09:18:28.318Z,7.88
2018-12-12T09:22:32.688Z,7.98
2018-12-12T09:26:36.834Z,8.07
2018-12-12T09:30:40.971Z,8.21
2018-12-12T09:34:47.016Z,8.26
2018-12-12T09:38:51.160Z,8.15
2018-12-12T09:42:55.247Z,8.06
2018-12-12T09:46:59.390Z,8.16
2018-12-12T09:51:07.264Z,8.07
2018-12-12T09:55:11.629Z,8.09
2018-12-12T09:59:15.705Z,8.02
2018-12-12T10:03:19.794Z,8.02
2018-12-12T10:07:23.869Z,7.99
2018-12-12T10:11:27.939Z,8.11
2018-12-12T10:15:32.569Z,8.24
2018-12-12T10:19:36.682Z,8.21
2018-12-12T10:23:40.765Z,8.18
2018-12-12T10:27:44.832Z,8.24
2018-12-12T10:31:48.954Z,8.28
2018-12-12T10:35:53.019Z,8.24
2018-12-12T10:39:57.190Z,8.09
2018-12-12T10:44:01.318Z,8.08
2018-12-12T10:48:05.435Z,8.19
2018-12-12T10:52:09.595Z,8.11
2018-12-12T10:56:13.686Z,8.19
2018-12-12T11:00:18.846Z,8.12
2018-12-12T11:04:22.957Z,7.93
2018-12-12T11:08:27.064Z,8.10
2018-12-12T11:12:31.121Z,8.30
2018-12-12T11:16:35.216Z,8.26
2018-12-12T11:20:39.316Z,8.61
2018-12-12T11:24:43.377Z,8.77
2018-12-12T11:28:47.489Z,8.85
2018-12-12T11:32:51.612Z,9.05
2018-12-12T11:36:55.737Z,9.33
2018-12-12T11:40:59.961Z,12.08
2018-12-12T11:45:04.795Z,10.76
2018-12-12T11:49:08.914Z,9.91
2018-12-12T11:53:13.041Z,9.36
2018-12-12T11:57:17.492Z,8.75
2018-12-12T12:01:21.572Z,8.65
2018-12-12T12:05:25.709Z,8.69
2018-12-12T12:09:29.850Z,8.69
2018-12-12T12:13:33.921Z,8.66
2018-12-12T12:17:38.009Z,8.60
2018-12-12T12:21:42.104Z,8.68
2018-12-12T12:25:46.186Z,8.52
2018-12-12T12:29:50.265Z,8.32
2018-12-12T12:33:54.508Z,8.39
2018-12-12T12:37:58.594Z,8.61
2018-12-12T12:42:02.665Z,8.70
2018-12-12T12:46:06.828Z,8.72
2018-12-12T12:50:10.926Z,8.73
2018-12-12T12:54:14.990Z,8.73
2018-12-12T12:58:19.060Z,8.49
2018-12-12T13:02:23.170Z,8.19
2018-12-12T13:06:27.245Z,8.36
2018-12-12T13:10:31.750Z,8.58
2018-12-12T13:14:35.798Z,8.42
2018-12-12T13:18:39.885Z,8.40
2018-12-12T13:22:43.957Z,8.15
2018-12-12T13:26:53.400Z,8.22
2018-12-12T13:30:54.133Z,8.48
2018-12-12T13:34:58.470Z,8.61
2018-12-12T13:43:19.647Z,8.66
2018-12-12T13:47:23.741Z,8.58
2018-12-12T13:51:28.189Z,8.47
2018-12-12T13:55:32.297Z,8.43
2018-12-12T13:59:36.402Z,8.33
2018-12-12T14:03:40.482Z,8.20
2018-12-12T14:07:44.559Z,8.20
2018-12-12T14:11:48.706Z,8.35
2018-12-12T14:15:52.793Z,8.56
2018-12-12T14:19:56.913Z,8.62
2018-12-12T14:24:00.999Z,8.70
2018-12-12T14:28:05.133Z,8.68
2018-12-12T14:32:09.290Z,8.68
2018-12-12T14:36:13.413Z,8.71
2018-12-12T14:40:17.505Z,8.73
2018-12-12T14:44:21.580Z,8.79
2018-12-12T14:48:30.295Z,8.70
2018-12-12T14:52:31.843Z,8.82
2018-12-12T14:56:35.997Z,8.89
2018-12-12T15:00:40.189Z,8.83
2018-12-12T15:04:44.254Z,8.89
2018-12-12T15:08:48.349Z,8.94
2018-12-12T15:12:52.524Z,8.90
2018-12-12T15:16:57.697Z,8.95
2018-12-12T15:21:01.790Z,8.92
2018-12-12T15:25:06.646Z,8.88
2018-12-12T15:29:10.733Z,8.87
2018-12-12T15:33:14.898Z,8.83
2018-12-12T15:37:18.984Z,8.87
2018-12-12T15:41:23.062Z,8.91
2018-12-12T15:45:27.238Z,8.84
2018-12-12T15:49:31.327Z,8.87
2018-12-12T15:53:35.466Z,8.89
2018-12-12T15:57:39.602Z,8.83
2018-12-12T16:01:43.762Z,8.77
2018-12-12T16:05:48.426Z,8.87
2018-12-12T16:09:52.502Z,8.83
2018-12-12T16:13:56.589Z,8.93
2018-12-12T16:18:00.709Z,8.96
2018-12-12T16:22:04.788Z,8.87
2018-12-12T16:26:08.871Z,8.85
2018-12-12T16:30:12.957Z,8.70
2018-12-12T16:34:17.029Z,8.69
2018-12-12T16:38:21.142Z,8.42
2018-12-12T16:42:26.081Z,8.44
2018-12-12T16:46:32.156Z,8.51
2018-12-12T16:50:36.253Z,8.63
2018-12-12T16:54:40.625Z,8.68
2018-12-12T16:58:44.759Z,8.66
2018-12-12T17:02:48.860Z,8.65
2018-12-12T17:06:52.929Z,8.68
2018-12-12T17:10:57.057Z,8.62
2018-12-12T17:15:02.144Z,8.63
2018-12-12T17:19:06.228Z,8.52
2018-12-12T17:23:10.332Z,8.46
2018-12-12T17:40:50.278Z,8.45
2018-12-12T17:49:09.002Z,8.52
2018-12-12T17:53:47.655Z,8.48
2018-12-12T18:02:48.806Z,8.55
2018-12-12T18:11:49.889Z,8.60
2018-12-12T18:20:47.175Z,8.50
2018-12-12T18:42:48.322Z,8.24
2018-12-12T18:51:47.617Z,8.10
2018-12-12T18:55:53.687Z,7.97
2018-12-12T18:59:57.750Z,7.90
2018-12-12T19:08:49.175Z,7.91
2018-12-12T19:12:53.254Z,7.85
2018-12-12T19:21:47.742Z,8.17
2018-12-12T19:30:48.358Z,8.36
2018-12-12T19:34:52.463Z,8.51
2018-12-12T19:38:57.642Z,8.49
2018-12-12T19:47:47.213Z,8.51
2018-12-12T19:51:51.304Z,8.54
2018-12-12T20:00:48.798Z,8.55
2018-12-12T20:04:58.296Z,8.52
2018-12-12T20:09:02.367Z,8.44
2018-12-12T20:13:07.683Z,8.31
2018-12-12T20:17:11.780Z,8.31
2018-12-12T20:21:15.882Z,8.10
2018-12-12T20:25:19.987Z,7.91
2018-12-12T20:29:24.072Z,7.96
2018-12-12T20:33:28.169Z,7.99
2018-12-12T20:37:32.285Z,7.88
2018-12-12T20:41:36.375Z,8.00
2018-12-12T20:45:40.476Z,8.02
2018-12-12T20:49:44.554Z,8.00
2018-12-12T20:53:48.712Z,8.04
2018-12-12T20:57:52.825Z,8.01
2018-12-12T21:01:58.419Z,8.03
2018-12-12T21:06:02.453Z,7.84
2018-12-12T21:10:07.475Z,7.88
2018-12-12T21:14:11.542Z,7.98
2018-12-12T21:18:15.629Z,8.10
2018-12-12T21:22:19.738Z,8.15
2018-12-12T21:26:25.078Z,8.11
2018-12-12T21:30:29.162Z,8.25
2018-12-12T21:34:33.249Z,8.31
2018-12-12T21:38:37.353Z,8.36
2018-12-12T21:47:47.550Z,8.29
2018-12-12T22:00:50.202Z,7.88
2018-12-12T22:09:14.427Z,7.75
2018-12-12T22:22:03.522Z,7.97
2018-12-12T22:30:49.302Z,7.90
2018-12-12T22:39:47.939Z,7.77
2018-12-12T22:48:47.600Z,7.82
2018-12-12T22:52:51.675Z,7.72
2018-12-12T23:19:47.410Z,7.79
2018-12-12T23:28:46.836Z,7.70
2018-12-12T23:32:50.893Z,7.41
2018-12-12T23:36:54.997Z,7.33
2018-12-12T23:40:59.090Z,7.22
2018-12-12T23:45:03.200Z,7.19
2018-12-12T23:49:08.248Z,7.21
2018-12-12T23:53:12.317Z,7.31
2018-12-12T23:57:16.399Z,7.54
